Fairchild Air Force Base
KSKA : now visible

Airfield :











YOU CAN JOIN US ON...

 
LOGIN :

Register | Disclaimer

   EN    FR    IT 

 









Legend :    VFR   Marginal VFR   IFR   Intensive IFR   Very Intensive IFR
Visi :
Ceiling :
>= 8 km
>= 3000ft
5 to 8 km
1000 to 3000 ft
1500m to 5 km
500 to 1000 ft
800 to 1500m
200 to 500 ft
< 800m
< 200 ft
Symbols :   Thunderstorms  Fog  Heavy snow  Heavy precipitations  Wind > 20 kt






- Airport Elevation : 2461 ft


KSKA - Fairchild Air Force Base

CURRENT METAR :
  • 041958Z 03004KT 10SM CLR 32/06 A3008 RMK AO2A SLP171 T03150058 $

EXPIRED METARs :
  • 041858Z AUTO 02004KT 10SM CLR 30/07 A3009 RMK AO2 DZB27E33 SLP175 P0000 T02980070 $
  • 041758Z AUTO 21005KT 10SM CLR 28/07 A3011 RMK AO2 SLP182 T02810073 10281 20125 $

TAF TAF KSKA
Valid from the 04 at 19:00 until the 06 at 01:00 UTC


041900Z 0419/0601 VRB06KT 9999 SKC QNH2997INS WND 06006KT AFT 0421
BECMG 0505/0506 VRB06KT 9999 FEW200 QNH2976INS TX32/0423Z TN13/0512Z
KZSE FIR / North America



MET'MAP, your aeronautical weather chart ! - Copyright ORBIFLY December 2007 - Disclaimer

ORBIFLY MET'MAP TEAM :

Programming & Development : Alexandra Zaïnal
Concept & original design : Baudouin d'Aumeries
Assistance for programming : Marc-Olivier Méhu
Technical & hardware support : Manuel Goepfert

Contact : metmap@orbifly.com




SOURCES & CREDITS :

   NOAA       Earth
Advisory